createdAt,value
2017-06-05T00:02:00.699Z,83.70
2017-06-05T00:04:29.020Z,83.50
2017-06-05T00:06:56.527Z,83.50
2017-06-05T00:09:24.807Z,83.00
2017-06-05T00:11:53.136Z,82.90
2017-06-05T00:14:20.645Z,82.70
2017-06-05T00:16:48.921Z,83.30
2017-06-05T00:19:17.248Z,83.80
2017-06-05T00:21:44.761Z,83.70
2017-06-05T00:24:12.273Z,83.70
2017-06-05T00:26:39.840Z,84.00
2017-06-05T00:29:07.360Z,83.80
2017-06-05T00:31:34.877Z,83.40
2017-06-05T00:34:02.444Z,82.80
2017-06-05T00:36:29.957Z,83.10
2017-06-05T00:38:57.473Z,83.10
2017-06-05T00:41:25.800Z,82.90
2017-06-05T00:43:53.308Z,82.80
2017-06-05T00:46:21.593Z,83.10
2017-06-05T00:48:49.925Z,82.40
2017-06-05T00:51:17.436Z,82.40
2017-06-05T00:53:45.714Z,82.60
2017-06-05T00:56:14.053Z,83.40
2017-06-05T00:58:41.577Z,83.30
2017-06-05T01:01:09.084Z,83.50
2017-06-05T01:03:36.648Z,83.60
2017-06-05T01:06:04.166Z,83.20
2017-06-05T01:08:31.680Z,83.00
2017-06-05T01:11:00.019Z,82.80
2017-06-05T01:13:27.532Z,82.70
2017-06-05T01:15:55.031Z,82.80
2017-06-05T01:18:22.594Z,83.10
2017-06-05T01:20:50.115Z,83.30
2017-06-05T01:23:17.629Z,83.40
2017-06-05T01:25:45.193Z,83.70
2017-06-05T01:28:12.708Z,83.90
2017-06-05T01:30:40.228Z,84.00
2017-06-05T01:33:07.801Z,84.00
2017-06-05T01:35:36.091Z,84.40
2017-06-05T01:38:03.608Z,84.30
2017-06-05T01:40:31.175Z,84.10
2017-06-05T01:42:58.686Z,83.60
2017-06-05T01:45:26.204Z,83.40
2017-06-05T01:47:53.767Z,83.00
2017-06-05T01:50:21.284Z,82.60
2017-06-05T01:52:48.792Z,82.90
2017-06-05T01:55:17.136Z,83.70
2017-06-05T01:57:44.653Z,83.00
2017-06-05T02:00:12.164Z,83.20
2017-06-05T02:02:39.760Z,83.00
2017-06-05T02:05:08.039Z,82.90
2017-06-05T02:07:36.316Z,83.10
2017-06-05T02:10:04.652Z,82.60
2017-06-05T02:12:32.165Z,82.50
2017-06-05T02:14:59.681Z,82.20
2017-06-05T02:17:27.250Z,81.80
2017-06-05T02:19:54.767Z,82.50
2017-06-05T02:22:22.281Z,82.30
2017-06-05T02:24:50.619Z,81.30
2017-06-05T02:27:18.132Z,81.80
2017-06-05T02:29:45.639Z,81.40
2017-06-05T02:32:13.209Z,82.10
2017-06-05T02:34:40.717Z,80.40
2017-06-05T02:37:08.224Z,81.50
2017-06-05T02:39:35.784Z,82.40
2017-06-05T02:42:03.300Z,83.10
2017-06-05T02:44:30.816Z,81.80
2017-06-05T02:46:58.376Z,81.30
2017-06-05T02:49:25.887Z,81.40
2017-06-05T02:51:53.410Z,82.00
2017-06-05T02:54:20.972Z,82.90
2017-06-05T02:56:48.484Z,83.10
2017-06-05T02:59:15.993Z,81.50
2017-06-05T03:01:43.553Z,83.20
2017-06-05T03:04:11.060Z,82.70
2017-06-05T03:06:38.576Z,83.00
2017-06-05T03:09:06.905Z,82.30
2017-06-05T03:11:34.423Z,81.70
2017-06-05T03:14:01.932Z,82.30
2017-06-05T03:16:29.496Z,82.00
2017-06-05T03:18:57.003Z,83.10
2017-06-05T03:21:25.279Z,82.80
2017-06-05T03:23:53.616Z,83.50
2017-06-05T03:26:21.137Z,83.40
2017-06-05T03:28:48.648Z,82.10
2017-06-05T03:31:16.219Z,82.10
2017-06-05T03:33:43.732Z,82.70
2017-06-05T03:36:11.241Z,82.80
2017-06-05T03:38:38.799Z,82.30
2017-06-05T03:41:06.306Z,83.30
2017-06-05T03:43:33.813Z,83.30
2017-06-05T03:46:01.385Z,84.00
2017-06-05T03:48:28.895Z,83.40
2017-06-05T03:50:56.405Z,84.00
2017-06-05T03:53:23.972Z,84.50
2017-06-05T03:55:52.247Z,83.70
2017-06-05T03:58:20.524Z,84.20
2017-06-05T04:00:48.852Z,84.60
2017-06-05T04:03:16.366Z,84.50
2017-06-05T04:05:44.640Z,84.50
2017-06-05T04:08:12.957Z,84.90
2017-06-05T04:10:40.472Z,84.20
2017-06-05T04:13:07.985Z,84.80
2017-06-05T04:15:35.552Z,84.40
2017-06-05T04:18:03.052Z,84.10
2017-06-05T04:20:30.575Z,84.50
2017-06-05T04:22:58.141Z,84.90
2017-06-05T04:25:25.656Z,85.30
2017-06-05T04:27:53.172Z,85.10
2017-06-05T04:30:20.732Z,85.30
2017-06-05T04:32:48.244Z,85.90
2017-06-05T04:35:15.756Z,85.80
2017-06-05T04:37:43.321Z,86.40
2017-06-05T04:40:10.840Z,86.40
2017-06-05T04:42:38.357Z,87.10
2017-06-05T04:45:06.699Z,87.10
2017-06-05T04:47:34.205Z,87.10
2017-06-05T04:50:02.560Z,87.90
2017-06-05T04:52:30.357Z,87.70
2017-06-05T04:54:57.867Z,87.90
2017-06-05T04:57:25.381Z,87.80
2017-06-05T04:59:52.944Z,87.90
2017-06-05T05:02:20.460Z,87.90
2017-06-05T05:04:47.973Z,87.90
2017-06-05T05:07:15.538Z,87.00
2017-06-05T05:09:43.049Z,86.80
2017-06-05T05:12:10.560Z,87.40
2017-06-05T05:14:38.120Z,86.80
2017-06-05T05:17:05.636Z,86.60
2017-06-05T05:19:33.922Z,87.60
2017-06-05T05:22:01.492Z,87.20
2017-06-05T05:24:29.012Z,87.10
2017-06-05T05:26:56.522Z,86.50
2017-06-05T05:29:24.075Z,86.70
2017-06-05T05:31:51.599Z,87.10
2017-06-05T05:34:19.108Z,86.30
2017-06-05T05:36:46.671Z,85.20
2017-06-05T05:39:14.189Z,85.00
2017-06-05T05:41:41.707Z,85.00
2017-06-05T05:44:09.256Z,85.10
2017-06-05T05:46:36.778Z,84.90
2017-06-05T05:49:05.055Z,85.20
2017-06-05T05:51:33.376Z,85.10
2017-06-05T05:54:00.892Z,85.10
2017-06-05T05:56:28.418Z,85.50
2017-06-05T05:58:55.968Z,85.10
2017-06-05T06:01:23.480Z,86.60
2017-06-05T06:03:50.995Z,86.90
2017-06-05T06:06:18.596Z,86.00
2017-06-05T06:08:46.868Z,86.50
2017-06-05T06:11:15.148Z,86.10
2017-06-05T06:13:43.463Z,86.10
2017-06-05T06:16:10.972Z,86.00
2017-06-05T06:18:38.485Z,86.10
2017-06-05T06:21:06.027Z,86.40
2017-06-05T06:23:33.535Z,86.10
2017-06-05T06:26:01.089Z,86.00
2017-06-05T06:28:28.597Z,86.00
2017-06-05T06:30:56.104Z,87.00
2017-06-05T06:33:23.663Z,86.60
2017-06-05T06:35:51.180Z,87.50
2017-06-05T06:38:18.700Z,88.10
2017-06-05T06:40:46.236Z,88.20
2017-06-05T06:43:13.776Z,87.00
2017-06-05T06:45:41.292Z,87.20
2017-06-05T06:48:08.827Z,86.40
2017-06-05T06:50:36.340Z,86.60
2017-06-05T06:53:03.893Z,85.90
2017-06-05T06:55:32.172Z,85.40
2017-06-05T06:57:59.683Z,85.40
2017-06-05T07:00:27.239Z,85.90
2017-06-05T07:02:54.748Z,84.70
2017-06-05T07:05:22.264Z,84.90
2017-06-05T07:07:49.830Z,85.60
2017-06-05T07:10:17.352Z,86.60
2017-06-05T07:12:44.861Z,85.60
2017-06-05T07:15:12.404Z,84.60
2017-06-05T07:17:39.975Z,85.90
2017-06-05T07:20:07.488Z,84.30
2017-06-05T07:22:35.005Z,84.50
2017-06-05T07:25:02.554Z,85.70
2017-06-05T07:27:30.120Z,85.40
2017-06-05T07:29:57.634Z,85.10
2017-06-05T07:32:25.140Z,84.70
2017-06-05T07:34:52.708Z,84.00
2017-06-05T07:37:20.219Z,84.80
2017-06-05T07:39:47.781Z,83.50
2017-06-05T07:42:15.301Z,83.60
2017-06-05T07:44:43.581Z,84.60
2017-06-05T07:47:11.891Z,84.60
2017-06-05T07:49:39.471Z,84.50
2017-06-05T07:52:06.975Z,84.70
2017-06-05T07:54:35.259Z,85.30
2017-06-05T07:57:02.824Z,85.10
2017-06-05T07:59:30.336Z,85.70
2017-06-05T08:01:57.848Z,86.20
2017-06-05T08:04:25.403Z,85.60
2017-06-05T08:06:52.915Z,85.30
2017-06-05T08:09:20.424Z,84.70
2017-06-05T08:11:47.984Z,85.00
2017-06-05T08:14:15.492Z,82.80
2017-06-05T08:16:42.995Z,82.20
2017-06-05T08:19:11.323Z,81.90
2017-06-05T08:21:38.832Z,81.80
2017-06-05T08:24:07.112Z,82.90
2017-06-05T08:26:34.663Z,82.70
2017-06-05T08:29:02.998Z,79.60
2017-06-05T08:31:30.516Z,79.60
2017-06-05T08:33:58.024Z,80.00
2017-06-05T08:36:25.579Z,80.30
2017-06-05T08:38:53.087Z,81.50
2017-06-05T08:41:21.361Z,78.30
2017-06-05T08:43:49.675Z,78.30
2017-06-05T08:46:17.183Z,78.20
2017-06-05T08:48:44.696Z,79.30
2017-06-05T08:51:12.239Z,79.20
2017-06-05T08:53:39.758Z,80.70
2017-06-05T08:56:07.316Z,77.90
2017-06-05T08:58:34.830Z,79.10
2017-06-05T09:01:02.345Z,77.90
2017-06-05T09:03:30.666Z,80.10
2017-06-05T09:05:58.175Z,79.60
2017-06-05T09:08:25.685Z,79.90
2017-06-05T09:10:53.231Z,78.50
2017-06-05T09:13:20.740Z,77.90
2017-06-05T09:15:48.255Z,78.30
2017-06-05T09:18:15.812Z,76.40
2017-06-05T09:20:43.324Z,78.70
2017-06-05T09:23:10.840Z,76.10
2017-06-05T09:25:38.391Z,77.50
2017-06-05T09:28:05.896Z,77.20
2017-06-05T09:30:33.413Z,76.80
2017-06-05T09:33:00.954Z,77.10
2017-06-05T09:35:29.313Z,75.40
2017-06-05T09:37:56.828Z,75.40
2017-06-05T09:40:24.335Z,74.70
2017-06-05T09:42:51.927Z,73.60
2017-06-05T09:45:19.676Z,71.30
2017-06-05T09:47:47.188Z,72.30
2017-06-05T09:50:14.744Z,74.80
2017-06-05T09:52:42.259Z,71.10
2017-06-05T09:55:10.536Z,71.70
2017-06-05T09:57:38.100Z,71.70
2017-06-05T10:00:05.609Z,69.60
2017-06-05T10:02:33.115Z,70.90
2017-06-05T10:05:00.668Z,72.90
2017-06-05T10:07:28.947Z,74.60
2017-06-05T10:09:56.463Z,74.60
2017-06-05T10:12:24.016Z,70.70
2017-06-05T10:14:51.529Z,69.70
2017-06-05T10:17:19.809Z,71.40
2017-06-05T10:19:48.116Z,69.90
2017-06-05T10:22:15.627Z,69.80
2017-06-05T10:24:43.216Z,69.10
2017-06-05T10:27:10.737Z,71.70
2017-06-05T10:29:38.252Z,68.20
2017-06-05T10:32:05.810Z,67.20
2017-06-05T10:34:33.319Z,67.30
2017-06-05T10:37:01.628Z,66.40
2017-06-05T10:39:29.182Z,66.30
2017-06-05T10:41:57.463Z,69.40
2017-06-05T10:44:24.984Z,69.20
2017-06-05T10:46:52.528Z,68.90
2017-06-05T10:49:20.069Z,65.50
2017-06-05T10:51:47.618Z,67.00
2017-06-05T10:54:15.177Z,67.10
2017-06-05T10:56:42.693Z,64.30
2017-06-05T10:59:10.208Z,66.80
2017-06-05T11:01:37.772Z,66.70
2017-06-05T11:04:05.288Z,66.60
2017-06-05T11:06:33.575Z,65.00
2017-06-05T11:09:01.895Z,66.80
2017-06-05T11:11:29.419Z,66.80
2017-06-05T11:13:57.048Z,64.70
2017-06-05T11:16:24.593Z,65.30
2017-06-05T11:18:52.104Z,67.10
2017-06-05T11:21:19.672Z,61.20
2017-06-05T11:23:47.189Z,63.90
2017-06-05T11:26:14.700Z,63.70
2017-06-05T11:28:42.248Z,64.20
2017-06-05T11:31:09.773Z,63.70
2017-06-05T11:33:37.328Z,62.60
2017-06-05T11:36:04.851Z,62.70
2017-06-05T11:38:32.369Z,64.10
2017-06-05T11:40:59.931Z,64.30
2017-06-05T11:43:28.214Z,64.10
2017-06-05T11:45:56.491Z,62.20
2017-06-05T11:48:24.828Z,60.50
2017-06-05T11:50:52.345Z,60.30
2017-06-05T11:53:19.863Z,59.90
2017-06-05T11:55:47.423Z,59.40
2017-06-05T11:58:14.940Z,61.70
2017-06-05T12:00:42.457Z,61.60
2017-06-05T12:03:10.824Z,63.50
2017-06-05T12:05:38.335Z,62.80
2017-06-05T12:08:05.850Z,61.60
2017-06-05T12:10:34.173Z,54.40
2017-06-05T12:13:01.687Z,54.40
2017-06-05T12:15:29.197Z,56.90
2017-06-05T12:17:56.748Z,56.20
2017-06-05T12:20:24.260Z,56.40
2017-06-05T12:22:51.821Z,57.90
2017-06-05T12:25:19.338Z,56.80
2017-06-05T12:27:46.868Z,57.60
2017-06-05T12:30:14.886Z,57.70
2017-06-05T12:32:42.427Z,56.60
2017-06-05T12:35:10.290Z,54.90
2017-06-05T12:37:37.845Z,57.20
2017-06-05T12:40:05.372Z,53.60
2017-06-05T12:42:33.716Z,57.10
2017-06-05T12:45:03.470Z,57.10
2017-06-05T12:47:30.989Z,58.40
2017-06-05T12:49:58.552Z,54.80
2017-06-05T12:52:26.338Z,55.70
2017-06-05T12:54:54.438Z,54.20
2017-06-05T12:57:22.101Z,56.40
2017-06-05T13:02:52.995Z,57.30
2017-06-05T13:05:21.025Z,57.70
2017-06-05T13:10:27.138Z,56.90
2017-06-05T13:12:54.697Z,53.50
2017-06-05T13:15:22.317Z,56.10
2017-06-05T13:17:49.857Z,54.60
2017-06-05T13:20:17.397Z,57.30
2017-06-05T13:22:45.763Z,54.10
2017-06-05T13:25:13.284Z,54.10
2017-06-05T13:27:40.808Z,55.20
2017-06-05T13:30:08.428Z,55.40
2017-06-05T13:32:35.965Z,53.70
2017-06-05T13:35:03.492Z,54.30
2017-06-05T13:37:31.091Z,55.70
2017-06-05T13:39:58.632Z,55.70
2017-06-05T13:42:26.221Z,54.60
2017-06-05T13:44:53.784Z,56.20
2017-06-05T13:47:22.061Z,58.40
2017-06-05T13:49:49.591Z,58.40
2017-06-05T13:52:17.216Z,57.80
2017-06-05T13:54:44.793Z,57.90
2017-06-05T13:57:12.376Z,56.10
2017-06-05T13:59:39.919Z,57.20
2017-06-05T14:02:07.564Z,56.90
2017-06-05T14:04:35.120Z,56.70
2017-06-05T14:07:02.790Z,56.30
2017-06-05T14:09:30.306Z,56.90
2017-06-05T14:11:57.885Z,55.00
2017-06-05T14:14:25.523Z,55.10
2017-06-05T14:16:53.135Z,57.50
2017-06-05T14:19:20.655Z,58.30
2017-06-05T14:21:48.177Z,59.00
2017-06-05T14:24:16.530Z,57.70
2017-06-05T14:26:44.826Z,57.60
2017-06-05T14:29:13.166Z,59.80
2017-06-05T14:31:41.488Z,59.50
2017-06-05T14:34:09.028Z,59.30
2017-06-05T14:36:36.599Z,59.40
2017-06-05T14:39:05.471Z,59.80
2017-06-05T14:41:33.013Z,59.70
2017-06-05T14:44:00.585Z,60.40
2017-06-05T14:46:28.140Z,61.40
2017-06-05T14:48:55.683Z,60.80
2017-06-05T14:51:23.248Z,62.80
2017-06-05T14:53:50.821Z,62.50
2017-06-05T14:56:18.340Z,63.00
2017-06-05T14:58:45.887Z,64.00
2017-06-05T15:01:13.467Z,66.50
2017-06-05T15:03:41.013Z,69.00
2017-06-05T15:06:08.548Z,69.50
2017-06-05T15:08:36.104Z,70.60
2017-06-05T15:11:03.629Z,71.90
2017-06-05T15:13:31.219Z,74.30
2017-06-05T15:15:58.737Z,74.60
2017-06-05T15:18:26.251Z,76.00
2017-06-05T15:20:53.845Z,75.50
2017-06-05T15:23:21.376Z,75.20
2017-06-05T15:25:48.892Z,75.60
2017-06-05T15:28:17.230Z,77.90
2017-06-05T15:30:44.756Z,77.80
2017-06-05T15:33:12.276Z,79.50
2017-06-05T15:35:39.868Z,79.90
2017-06-05T15:38:07.429Z,79.30
2017-06-05T15:40:34.955Z,78.80
2017-06-05T15:43:03.299Z,79.60
2017-06-05T15:45:30.836Z,79.60
2017-06-05T15:47:58.402Z,78.90
2017-06-05T15:50:25.997Z,80.20
2017-06-05T15:52:53.584Z,80.00
2017-06-05T15:55:21.103Z,78.30
2017-06-05T15:57:48.669Z,79.40
2017-06-05T16:00:17.007Z,80.70
2017-06-05T16:02:44.531Z,79.70
2017-06-05T16:05:12.097Z,80.10
2017-06-05T16:07:39.682Z,81.30
2017-06-05T16:10:07.293Z,81.10
2017-06-05T16:12:34.840Z,80.90
2017-06-05T16:15:02.372Z,81.20
2017-06-05T16:17:29.930Z,81.20
2017-06-05T16:19:57.460Z,81.50
2017-06-05T16:22:24.987Z,81.60
2017-06-05T16:24:53.331Z,83.00
2017-06-05T16:27:20.876Z,82.70
2017-06-05T16:29:48.392Z,82.50
2017-06-05T16:32:16.021Z,81.60
2017-06-05T16:34:43.552Z,83.30
2017-06-05T16:37:11.355Z,82.60
2017-06-05T16:39:39.389Z,82.50
2017-06-05T16:42:06.938Z,84.20
2017-06-05T16:44:34.486Z,83.30
2017-06-05T16:47:02.055Z,82.10
2017-06-05T16:49:29.623Z,80.90
2017-06-05T16:51:57.144Z,80.90
2017-06-05T16:54:24.708Z,81.60
2017-06-05T16:56:52.228Z,80.90
2017-06-05T16:59:19.759Z,80.80
2017-06-05T17:01:47.347Z,81.50
2017-06-05T17:04:14.871Z,81.90
2017-06-05T17:06:42.419Z,82.10
2017-06-05T17:09:09.999Z,83.30
2017-06-05T17:11:37.532Z,83.10
2017-06-05T17:14:05.103Z,82.80
2017-06-05T17:16:32.717Z,83.00
2017-06-05T17:19:00.708Z,82.10
2017-06-05T17:21:28.234Z,81.30
2017-06-05T17:23:55.853Z,81.80
2017-06-05T17:26:23.378Z,81.50
2017-06-05T17:28:50.911Z,81.90
2017-06-05T17:31:18.488Z,82.90
2017-06-05T17:33:46.039Z,82.50
2017-06-05T17:36:13.605Z,83.20
2017-06-05T17:38:41.184Z,82.90
2017-06-05T17:41:10.336Z,82.00
2017-06-05T17:43:37.865Z,81.90
2017-06-05T17:46:06.264Z,81.50
2017-06-05T17:48:33.800Z,81.80
2017-06-05T17:51:01.400Z,82.50
2017-06-05T17:53:28.960Z,82.80
2017-06-05T17:55:56.488Z,82.60
2017-06-05T17:58:24.064Z,84.00
2017-06-05T18:00:51.634Z,83.80
2017-06-05T18:03:19.156Z,84.20
2017-06-05T18:05:46.676Z,83.70
2017-06-05T18:08:14.253Z,83.10
2017-06-05T18:10:41.803Z,83.30
2017-06-05T18:13:09.340Z,83.60
2017-06-05T18:15:36.912Z,83.80
2017-06-05T18:18:04.513Z,84.40
2017-06-05T18:20:32.805Z,86.00
2017-06-05T18:23:00.400Z,85.80
2017-06-05T18:25:27.922Z,85.40
2017-06-05T18:27:55.453Z,84.00
2017-06-05T18:30:23.037Z,84.40
2017-06-05T18:32:50.617Z,84.30
2017-06-05T18:35:18.194Z,85.30
2017-06-05T18:37:45.773Z,84.40
2017-06-05T18:40:13.308Z,84.40
2017-06-05T18:42:40.968Z,85.20
2017-06-05T18:45:08.550Z,85.10
2017-06-05T18:47:36.098Z,84.40
2017-06-05T18:50:03.696Z,84.70
2017-06-05T18:52:32.052Z,85.50
2017-06-05T18:55:00.372Z,85.60
2017-06-05T18:57:27.901Z,85.00
2017-06-05T18:59:56.345Z,84.70
2017-06-05T19:02:23.933Z,84.70
2017-06-05T19:04:52.236Z,85.40
2017-06-05T19:07:19.809Z,85.20
2017-06-05T19:09:48.251Z,85.20
2017-06-05T19:12:15.851Z,85.80
2017-06-05T19:14:43.464Z,85.80
2017-06-05T19:17:11.040Z,87.20
2017-06-05T19:19:38.585Z,87.20
2017-06-05T19:22:06.949Z,85.90
2017-06-05T19:24:35.379Z,85.50
2017-06-05T19:27:02.954Z,86.00
2017-06-05T19:29:30.508Z,86.10
2017-06-05T19:31:58.074Z,87.30
2017-06-05T19:34:25.637Z,86.70
2017-06-05T19:36:53.248Z,87.50
2017-06-05T19:39:20.859Z,87.60
2017-06-05T19:41:48.377Z,88.10
2017-06-05T19:44:15.945Z,86.80
2017-06-05T19:46:44.396Z,88.20
2017-06-05T19:49:11.962Z,87.50
2017-06-05T19:51:39.539Z,87.20
2017-06-05T19:54:07.151Z,87.90
2017-06-05T19:56:35.492Z,88.60
2017-06-05T19:59:03.060Z,88.50
2017-06-05T20:01:30.642Z,88.20
2017-06-05T20:03:58.168Z,88.50
2017-06-05T20:06:25.713Z,88.90
2017-06-05T20:08:53.336Z,88.70
2017-06-05T20:11:20.864Z,88.50
2017-06-05T20:13:48.430Z,88.20
2017-06-05T20:16:15.983Z,88.30
2017-06-05T20:18:43.534Z,88.80
2017-06-05T20:21:11.082Z,87.10
2017-06-05T20:23:38.660Z,87.40
2017-06-05T20:26:06.225Z,88.00
2017-06-05T20:28:34.540Z,88.40
2017-06-05T20:31:02.932Z,88.40
2017-06-05T20:33:30.552Z,88.20
2017-06-05T20:35:58.108Z,88.40
2017-06-05T20:38:25.712Z,88.80
2017-06-05T20:40:53.319Z,88.80
2017-06-05T20:43:21.615Z,89.60
2017-06-05T20:45:49.265Z,89.40
2017-06-05T20:48:16.792Z,89.60
2017-06-05T20:50:44.324Z,89.40
2017-06-05T20:53:11.919Z,89.40
2017-06-05T20:55:40.390Z,89.40
2017-06-05T20:58:07.963Z,89.50
2017-06-05T21:00:36.298Z,90.30
2017-06-05T21:03:03.864Z,90.30
2017-06-05T21:05:31.410Z,90.30
2017-06-05T21:12:46.246Z,89.20
2017-06-05T21:15:13.800Z,89.90
2017-06-05T21:17:41.316Z,89.20
2017-06-05T21:20:08.840Z,89.00
2017-06-05T21:22:37.228Z,89.40
2017-06-05T21:25:04.889Z,89.20
2017-06-05T21:27:33.331Z,90.10
2017-06-05T21:30:01.127Z,90.10
2017-06-05T21:32:29.503Z,90.10
2017-06-05T21:34:57.789Z,90.30
2017-06-05T21:37:26.115Z,89.50
2017-06-05T21:39:53.636Z,89.40
2017-06-05T21:42:21.154Z,89.20
2017-06-05T21:44:48.711Z,89.10
2017-06-05T21:47:16.229Z,89.40
2017-06-05T21:49:43.744Z,90.00
2017-06-05T21:52:11.316Z,89.60
2017-06-05T21:54:39.595Z,90.00
2017-06-05T21:57:07.888Z,90.10
2017-06-05T21:59:35.462Z,90.00
2017-06-05T22:02:02.977Z,89.30
2017-06-05T22:04:30.498Z,89.30
2017-06-05T22:06:58.063Z,89.50
2017-06-05T22:09:25.580Z,88.70
2017-06-05T22:11:53.865Z,89.00
2017-06-05T22:14:21.468Z,88.90
2017-06-05T22:16:48.989Z,89.20
2017-06-05T22:19:16.503Z,89.40
2017-06-05T22:21:44.085Z,89.60
2017-06-05T22:24:12.375Z,89.10
2017-06-05T22:26:40.664Z,88.40
2017-06-05T22:29:08.233Z,88.30
2017-06-05T22:31:35.756Z,88.80
2017-06-05T22:34:03.275Z,89.30
2017-06-05T22:36:30.831Z,89.00
2017-06-05T22:38:58.357Z,89.20
2017-06-05T22:41:25.873Z,89.30
2017-06-05T22:43:53.428Z,89.30
2017-06-05T22:46:21.030Z,89.40
2017-06-05T22:48:48.599Z,89.40
2017-06-05T22:51:16.959Z,89.70
2017-06-05T22:53:44.484Z,89.70
2017-06-05T22:56:12.002Z,89.80
2017-06-05T22:58:39.568Z,89.80
2017-06-05T23:01:07.076Z,88.80
2017-06-05T23:03:34.632Z,88.30
2017-06-05T23:06:02.189Z,89.70
2017-06-05T23:08:29.716Z,89.80
2017-06-05T23:10:57.229Z,90.10
2017-06-05T23:13:24.787Z,90.20
2017-06-05T23:15:52.308Z,89.30
2017-06-05T23:18:19.829Z,89.80
2017-06-05T23:20:48.188Z,89.90
2017-06-05T23:23:15.704Z,89.80
2017-06-05T23:25:43.225Z,89.90
2017-06-05T23:28:10.788Z,89.70
2017-06-05T23:30:39.069Z,87.20
2017-06-05T23:33:07.351Z,90.00
2017-06-05T23:35:35.684Z,90.10
2017-06-05T23:38:03.200Z,90.10
2017-06-05T23:40:30.715Z,90.10
2017-06-05T23:42:58.267Z,90.00
2017-06-05T23:45:25.789Z,90.00
2017-06-05T23:47:53.308Z,90.20
2017-06-05T23:50:20.868Z,90.10
2017-06-05T23:52:48.384Z,90.10
2017-06-05T23:55:15.897Z,90.30
2017-06-05T23:57:44.243Z,89.50
